Time;durP1;ratioP1;P1;durP2;ratioP2;P2;SDS_P1;SDS_P2;PMS_P1;PMS_P2;Temp;Humidity;BMP_temperature;BMP_pressure;BME280_temperature;BME280_humidity;BME280_pressure;Samples;Min_cycle;Max_cycle;Signal;HPM_P1;HPM_P2
2021/12/14 00:01:34;;;;;;;50.38;28.23;;;6.50;99.90;;;;;;4670185;28;10000205;-75
2021/12/14 00:04:05;;;;;;;51.40;27.67;;;6.50;99.90;;;;;;5019219;28;20070;-74
2021/12/14 00:06:30;;;;;;;54.67;27.55;;;6.50;99.90;;;;;;5016866;28;20103;-75
2021/12/14 00:08:58;;;;;;;53.67;28.42;;;6.50;99.90;;;;;;5026852;28;20049;-75
2021/12/14 00:14:27;;;;;;;53.00;28.20;;;6.50;99.90;;;;;;5019993;28;20124;-75
2021/12/14 00:16:58;;;;;;;54.75;28.45;;;6.50;99.90;;;;;;5015463;28;20034;-75
2021/12/14 00:19:25;;;;;;;53.42;27.80;;;6.50;99.90;;;;;;5015306;28;20017;-75
2021/12/14 00:21:54;;;;;;;51.20;27.58;;;6.50;99.90;;;;;;5032902;28;20029;-75
2021/12/14 00:24:23;;;;;;;55.88;28.90;;;6.50;99.90;;;;;;5013392;28;20513;-75
2021/12/14 00:26:56;;;;;;;52.22;28.85;;;6.50;99.90;;;;;;5017684;28;20030;-74
2021/12/14 00:29:24;;;;;;;50.47;27.42;;;6.50;99.90;;;;;;5027312;28;20029;-75
2021/12/14 00:31:51;;;;;;;55.65;28.40;;;6.50;99.90;;;;;;5021159;28;20037;-74
2021/12/14 00:34:23;;;;;;;51.00;28.38;;;6.50;99.90;;;;;;5017576;28;20030;-75
2021/12/14 00:36:51;;;;;;;55.50;28.48;;;6.50;99.90;;;;;;5022011;28;20029;-75
2021/12/14 00:39:18;;;;;;;51.63;28.48;;;6.50;99.90;;;;;;5026390;28;20078;-75
2021/12/14 00:41:44;;;;;;;56.08;28.33;;;6.50;99.90;;;;;;5025205;28;20026;-74
2021/12/14 00:44:11;;;;;;;53.47;28.70;;;6.50;99.90;;;;;;5020726;28;20030;-75
2021/12/14 00:46:38;;;;;;;49.15;26.65;;;6.50;99.90;;;;;;5023516;28;20041;-75
2021/12/14 00:49:08;;;;;;;51.72;27.17;;;6.50;99.90;;;;;;5028850;28;20021;-75
2021/12/14 00:51:34;;;;;;;53.78;28.92;;;6.40;99.90;;;;;;5026278;28;20030;-75
2021/12/14 00:54:03;;;;;;;51.67;28.42;;;6.40;99.90;;;;;;5019102;28;20088;-75
2021/12/14 00:56:29;;;;;;;50.65;27.85;;;6.50;99.90;;;;;;5022408;28;20037;-75
2021/12/14 00:58:55;;;;;;;51.83;28.50;;;6.50;99.90;;;;;;5017227;28;20030;-75
2021/12/14 01:01:25;;;;;;;57.65;30.08;;;6.50;99.90;;;;;;5023640;28;20116;-75
2021/12/14 01:03:54;;;;;;;52.97;28.45;;;6.40;99.90;;;;;;5022808;28;20045;-75
2021/12/14 01:06:22;;;;;;;52.95;28.35;;;6.40;99.90;;;;;;5020070;28;20424;-75
2021/12/14 01:08:49;;;;;;;51.70;27.60;;;6.40;99.90;;;;;;5014139;28;20032;-74
2021/12/14 01:11:41;;;;;;;57.03;28.33;;;6.40;99.90;;;;;;5034120;28;20033;-75
2021/12/14 01:14:17;;;;;;;56.20;29.42;;;6.40;99.90;;;;;;5030898;28;20053;-75
2021/12/14 01:16:52;;;;;;;57.75;29.77;;;6.40;99.90;;;;;;5015025;28;20111;-75
2021/12/14 01:19:27;;;;;;;58.05;29.90;;;6.40;99.90;;;;;;5019488;28;20022;-75
2021/12/14 01:27:09;;;;;;;64.07;30.63;;;6.40;99.90;;;;;;5023308;28;20104;-75
2021/12/14 01:29:36;;;;;;;62.53;31.10;;;6.40;99.90;;;;;;5016735;28;20130;-75
2021/12/14 01:32:03;;;;;;;62.28;30.55;;;6.40;99.90;;;;;;5026983;28;20072;-75
2021/12/14 01:34:31;;;;;;;64.82;31.85;;;6.40;99.90;;;;;;5038341;28;20155;-75
2021/12/14 01:37:02;;;;;;;65.68;31.88;;;6.30;99.90;;;;;;5028967;28;20497;-75
2021/12/14 01:40:04;;;;;;;56.80;28.40;;;6.40;99.90;;;;;;5039793;28;20378;-75
2021/12/14 01:42:38;;;;;;;59.28;30.27;;;6.40;99.90;;;;;;5019498;28;20048;-75
2021/12/14 01:45:12;;;;;;;60.33;29.23;;;6.40;99.90;;;;;;5024983;28;20087;-75
2021/12/14 01:47:46;;;;;;;58.38;30.45;;;6.40;99.90;;;;;;5024675;28;20516;-75
2021/12/14 01:50:17;;;;;;;57.97;30.05;;;6.40;99.90;;;;;;5019270;28;20486;-75
2021/12/14 01:52:43;;;;;;;59.83;30.02;;;6.40;99.90;;;;;;5019381;28;20029;-75
2021/12/14 01:55:30;;;;;;;57.17;28.90;;;6.40;99.90;;;;;;5034602;28;20032;-75
2021/12/14 01:57:58;;;;;;;61.30;31.20;;;6.40;99.90;;;;;;5037743;28;20021;-75
2021/12/14 02:00:34;;;;;;;62.83;30.88;;;6.40;99.90;;;;;;5034150;28;20082;-75
2021/12/14 02:03:02;;;;;;;59.67;31.00;;;6.40;99.90;;;;;;5037396;28;20366;-75
2021/12/14 02:05:35;;;;;;;56.53;29.45;;;6.40;99.90;;;;;;5024577;28;20045;-75
2021/12/14 02:08:12;;;;;;;63.75;31.25;;;6.40;99.90;;;;;;5039106;28;20624;-75
2021/12/14 02:10:38;;;;;;;56.85;29.80;;;6.40;99.90;;;;;;5014246;28;20072;-75
2021/12/14 02:13:06;;;;;;;61.08;31.17;;;6.40;99.90;;;;;;5024533;28;20076;-75
2021/12/14 02:15:36;;;;;;;59.75;31.42;;;6.40;99.90;;;;;;5028735;28;20038;-75
2021/12/14 02:18:23;;;;;;;64.32;32.10;;;6.40;99.90;;;;;;5012367;28;20049;-75
2021/12/14 02:20:54;;;;;;;60.80;32.00;;;6.40;99.90;;;;;;5029337;28;20065;-75
2021/12/14 02:23:21;;;;;;;61.22;30.85;;;6.40;99.90;;;;;;5024001;28;20043;-75
2021/12/14 02:25:49;;;;;;;57.88;30.05;;;6.40;99.90;;;;;;5016582;28;20116;-75
2021/12/14 02:28:18;;;;;;;58.70;30.20;;;6.40;99.90;;;;;;5022204;28;20521;-75
2021/12/14 02:30:46;;;;;;;59.72;30.98;;;6.40;99.90;;;;;;5028389;28;20472;-75
2021/12/14 02:33:29;;;;;;;56.15;31.00;;;6.40;99.90;;;;;;5032686;28;20023;-75
2021/12/14 02:35:56;;;;;;;56.30;30.73;;;6.40;99.90;;;;;;5017762;28;20362;-75
2021/12/14 02:38:22;;;;;;;58.67;29.17;;;6.40;99.90;;;;;;5028132;28;20056;-75
2021/12/14 02:40:53;;;;;;;58.55;31.00;;;6.40;99.90;;;;;;5035516;28;20057;-75
2021/12/14 02:43:27;;;;;;;59.08;29.85;;;6.40;99.90;;;;;;5030810;28;20045;-75
2021/12/14 02:46:00;;;;;;;56.83;31.05;;;6.40;99.90;;;;;;5028817;28;20117;-75
2021/12/14 02:48:27;;;;;;;54.72;29.65;;;6.40;99.90;;;;;;5015825;28;20474;-74
2021/12/14 02:50:52;;;;;;;56.13;29.85;;;6.40;99.90;;;;;;5024824;28;20025;-75
2021/12/14 02:53:19;;;;;;;55.95;29.60;;;6.40;99.90;;;;;;5029431;28;20017;-75
2021/12/14 02:55:44;;;;;;;50.75;29.00;;;6.40;99.90;;;;;;5036727;28;20056;-75
2021/12/14 02:58:10;;;;;;;52.85;28.63;;;6.40;99.90;;;;;;5017673;28;20030;-75
2021/12/14 03:00:48;;;;;;;51.35;28.38;;;6.40;99.90;;;;;;5019724;28;20033;-75
2021/12/14 03:03:15;;;;;;;52.97;28.63;;;6.40;99.90;;;;;;5019546;28;20037;-75
2021/12/14 03:05:43;;;;;;;53.70;29.70;;;6.40;99.90;;;;;;5036194;28;20084;-75
2021/12/14 03:08:16;;;;;;;54.95;31.08;;;6.40;99.90;;;;;;5016940;28;20508;-75
2021/12/14 03:13:19;;;;;;;50.28;27.95;;;6.40;99.90;;;;;;5035842;28;20504;-75
2021/12/14 03:15:52;;;;;;;50.25;27.98;;;6.40;99.90;;;;;;5029963;28;20103;-76
2021/12/14 03:18:30;;;;;;;48.92;27.63;;;6.40;99.90;;;;;;5044517;28;20025;-74
2021/12/14 03:21:00;;;;;;;48.78;27.83;;;6.40;99.90;;;;;;5028940;28;20072;-75
2021/12/14 03:23:32;;;;;;;46.65;27.08;;;6.40;99.90;;;;;;5009096;28;20060;-75
2021/12/14 03:26:01;;;;;;;34.20;20.20;;;6.40;99.90;;;;;;5027464;28;20029;-74
2021/12/14 03:28:28;;;;;;;45.08;26.55;;;6.40;99.90;;;;;;5023254;28;20052;-75
2021/12/14 03:31:03;;;;;;;45.97;26.50;;;6.40;99.90;;;;;;5016043;28;20087;-75
2021/12/14 03:33:34;;;;;;;47.08;27.00;;;6.40;99.90;;;;;;5038884;28;20018;-75
2021/12/14 03:36:11;;;;;;;48.53;28.30;;;6.40;99.90;;;;;;5024245;28;20017;-75
2021/12/14 03:38:42;;;;;;;49.88;28.00;;;6.40;99.90;;;;;;5019813;28;20036;-75
2021/12/14 03:41:18;;;;;;;50.35;28.08;;;6.30;99.90;;;;;;5024120;28;20029;-75
2021/12/14 03:43:59;;;;;;;50.95;27.75;;;6.40;99.90;;;;;;5027751;28;20501;-74
2021/12/14 03:46:30;;;;;;;49.45;28.10;;;6.40;99.90;;;;;;5040654;28;20037;-74
2021/12/14 03:48:56;;;;;;;48.97;28.48;;;6.40;99.90;;;;;;5045331;28;20036;-75
2021/12/14 03:51:23;;;;;;;49.20;28.38;;;6.30;99.90;;;;;;5036045;28;20037;-74
2021/12/14 03:53:51;;;;;;;47.50;26.85;;;6.30;99.90;;;;;;5024292;28;20033;-75
2021/12/14 03:56:18;;;;;;;48.05;27.92;;;6.30;99.90;;;;;;5019103;28;20030;-75
2021/12/14 03:58:44;;;;;;;50.08;27.73;;;6.30;99.90;;;;;;5022394;28;20061;-75
2021/12/14 04:01:34;;;;;;;48.33;25.95;;;6.30;99.90;;;;;;5016121;28;20524;-74
2021/12/14 04:04:11;;;;;;;44.67;25.33;;;6.30;99.90;;;;;;5022330;28;20037;-75
2021/12/14 04:06:38;;;;;;;44.67;25.20;;;6.30;99.90;;;;;;5016463;28;20029;-75
2021/12/14 04:09:11;;;;;;;43.58;26.23;;;6.30;99.90;;;;;;5030826;28;20037;-75
2021/12/14 04:11:37;;;;;;;43.13;25.63;;;6.20;99.90;;;;;;5024573;28;20036;-75
2021/12/14 04:14:03;;;;;;;41.65;23.98;;;6.20;99.90;;;;;;5024229;28;20451;-75
2021/12/14 04:16:29;;;;;;;42.13;23.27;;;6.20;99.90;;;;;;5021326;28;20132;-75
2021/12/14 04:18:57;;;;;;;40.88;24.45;;;6.20;99.90;;;;;;5018901;28;20145;-75
2021/12/14 04:21:23;;;;;;;42.50;24.52;;;6.20;99.90;;;;;;5027417;28;20485;-75
2021/12/14 04:23:52;;;;;;;39.40;24.38;;;6.20;99.90;;;;;;5021638;28;20080;-75
2021/12/14 04:26:18;;;;;;;41.95;25.75;;;6.20;99.90;;;;;;5015810;28;20037;-75
2021/12/14 04:28:52;;;;;;;45.45;26.77;;;6.20;99.90;;;;;;5026688;28;20109;-74
2021/12/14 04:31:19;;;;;;;45.60;26.77;;;6.20;99.90;;;;;;5019455;28;20073;-75
2021/12/14 04:33:47;;;;;;;45.63;26.83;;;6.20;99.90;;;;;;5014479;28;20072;-75
2021/12/14 04:36:16;;;;;;;49.80;29.17;;;6.20;99.90;;;;;;5017801;28;20025;-75
2021/12/14 04:38:51;;;;;;;50.20;28.50;;;6.20;99.90;;;;;;5015825;28;20033;-75
2021/12/14 04:52:22;;;;;;;50.80;29.63;;;6.20;99.90;;;;;;5020497;28;20037;-74
2021/12/14 04:54:53;;;;;;;50.90;28.90;;;6.30;99.90;;;;;;5015475;28;20095;-75
2021/12/14 04:57:37;;;;;;;49.00;29.13;;;6.30;99.90;;;;;;5017295;28;20013;-75
2021/12/14 05:00:14;;;;;;;;;;;6.20;99.90;;;;;;5021387;28;20033;-75
2021/12/14 05:02:40;;;;;;;45.20;26.60;;;6.30;99.90;;;;;;5015614;28;19978;-75
2021/12/14 05:05:09;;;;;;;48.50;27.60;;;6.20;99.90;;;;;;5016706;28;20022;-75
2021/12/14 05:07:49;;;;;;;45.67;27.48;;;6.30;99.90;;;;;;5018896;28;20018;-75
2021/12/14 05:10:20;;;;;;;45.85;27.45;;;6.20;99.90;;;;;;5018493;28;20018;-74
2021/12/14 05:12:46;;;;;;;51.22;29.00;;;6.30;99.90;;;;;;5019181;28;20424;-75
2021/12/14 05:15:15;;;;;;;51.50;28.85;;;6.20;99.90;;;;;;5019246;28;20026;-75
2021/12/14 05:17:42;;;;;;;45.83;27.73;;;6.20;99.90;;;;;;5026066;28;20087;-75
2021/12/14 05:20:10;;;;;;;46.30;27.50;;;6.20;99.90;;;;;;5023741;28;20058;-75
2021/12/14 05:22:37;;;;;;;48.13;28.25;;;6.20;99.90;;;;;;5021549;28;20032;-75
2021/12/14 05:25:21;;;;;;;47.17;27.75;;;6.20;99.90;;;;;;5025850;28;20088;-75
2021/12/14 05:27:57;;;;;;;46.35;28.75;;;6.20;99.90;;;;;;5016093;28;20060;-75
2021/12/14 05:30:25;;;;;;;50.72;29.10;;;6.20;99.90;;;;;;5032770;28;20073;-75
2021/12/14 05:33:13;;;;;;;50.67;29.85;;;6.20;99.90;;;;;;5022707;28;20041;-75
2021/12/14 05:35:40;;;;;;;52.22;29.77;;;6.20;99.90;;;;;;5028558;28;20071;-75
2021/12/14 05:38:26;;;;;;;46.97;28.95;;;6.20;99.90;;;;;;5051792;28;20025;-74
2021/12/14 05:43:22;;;;;;;52.60;30.35;;;6.30;99.90;;;;;;5050630;28;20460;-74
2021/12/14 05:45:52;;;;;;;48.92;29.95;;;6.30;99.90;;;;;;5022071;28;20848;-75
2021/12/14 05:48:21;;;;;;;50.13;30.58;;;6.30;99.90;;;;;;5025650;28;20443;-74
2021/12/14 05:50:50;;;;;;;50.05;29.92;;;6.30;99.90;;;;;;5023278;28;20132;-74
2021/12/14 05:53:38;;;;;;;75.85;45.83;;;6.30;99.90;;;;;;5029702;28;20025;-75
2021/12/14 05:56:14;;;;;;;62.38;38.03;;;6.30;99.90;;;;;;5018483;28;20037;-74
2021/12/14 05:58:40;;;;;;;55.28;32.45;;;6.30;99.90;;;;;;4664140;28;10000140;-75
2021/12/14 06:01:13;;;;;;;56.67;32.55;;;6.30;99.90;;;;;;5023306;28;20026;-74
2021/12/14 06:03:45;;;;;;;55.95;32.10;;;6.30;99.90;;;;;;5037053;28;20234;-74
2021/12/14 06:06:29;;;;;;;56.58;32.38;;;6.30;99.90;;;;;;5031301;28;20037;-74
2021/12/14 06:09:13;;;;;;;54.63;31.73;;;6.30;99.90;;;;;;5026433;28;20068;-74
2021/12/14 06:11:40;;;;;;;61.35;35.90;;;6.30;99.90;;;;;;5015781;28;20033;-75
2021/12/14 06:14:25;;;;;;;54.28;33.00;;;6.30;99.90;;;;;;5030680;28;20440;-75
2021/12/14 06:16:55;;;;;;;58.88;34.60;;;6.30;99.90;;;;;;5020997;28;20029;-74
2021/12/14 06:19:24;;;;;;;56.67;33.40;;;6.20;99.90;;;;;;5038701;28;20032;-74
2021/12/14 06:22:04;;;;;;;58.65;32.83;;;6.30;99.90;;;;;;5016330;28;20034;-75
2021/12/14 06:24:32;;;;;;;65.75;36.60;;;6.30;99.90;;;;;;5023315;28;20056;-75
2021/12/14 06:27:01;;;;;;;69.05;38.10;;;6.30;99.90;;;;;;5025045;28;20025;-74
2021/12/14 06:29:40;;;;;;;67.15;38.97;;;6.30;99.90;;;;;;5022768;28;20394;-75
2021/12/14 06:32:09;;;;;;;71.65;39.83;;;6.30;99.90;;;;;;5024084;28;20421;-75
2021/12/14 06:34:42;;;;;;;69.25;39.17;;;6.30;99.90;;;;;;5030857;28;20143;-75
2021/12/14 06:37:23;;;;;;;72.03;40.35;;;6.30;99.90;;;;;;5034109;28;20033;-75
2021/12/14 06:40:09;;;;;;;69.28;39.95;;;6.20;99.90;;;;;;5026633;28;20736;-75
2021/12/14 06:42:39;;;;;;;71.05;38.10;;;6.20;99.90;;;;;;5040484;28;20167;-75
2021/12/14 06:45:12;;;;;;;71.63;38.70;;;6.20;99.90;;;;;;5027920;28;20024;-75
2021/12/14 06:47:41;;;;;;;52.95;29.08;;;6.20;99.90;;;;;;5036838;28;20227;-75
2021/12/14 06:50:13;;;;;;;68.78;38.40;;;6.20;99.90;;;;;;5022419;28;20033;-75
2021/12/14 06:52:40;;;;;;;66.55;36.88;;;6.20;99.90;;;;;;5029201;28;20037;-75
2021/12/14 06:55:07;;;;;;;67.65;38.10;;;6.30;99.90;;;;;;5035397;28;20034;-75
2021/12/14 06:57:33;;;;;;;68.38;38.08;;;6.30;99.90;;;;;;5016016;28;20029;-75
2021/12/14 06:59:59;;;;;;;63.15;35.60;;;6.30;99.90;;;;;;5025606;28;20512;-75
2021/12/14 07:02:26;;;;;;;64.80;37.42;;;6.20;99.90;;;;;;5021693;28;20041;-75
2021/12/14 07:04:52;;;;;;;70.22;38.97;;;6.30;99.90;;;;;;5038412;28;20043;-76
2021/12/14 07:07:22;;;;;;;67.80;37.80;;;6.30;99.90;;;;;;5025493;28;20477;-74
2021/12/14 07:09:52;;;;;;;68.55;38.58;;;6.30;99.90;;;;;;5036811;28;20032;-73
2021/12/14 07:12:24;;;;;;;66.28;37.83;;;6.30;99.90;;;;;;5025272;28;20082;-73
2021/12/14 07:14:50;;;;;;;62.15;35.92;;;6.30;99.90;;;;;;5033110;28;20033;-73
2021/12/14 07:17:18;;;;;;;62.67;35.17;;;6.30;99.90;;;;;;5027737;28;20037;-73
2021/12/14 07:19:47;;;;;;;67.57;38.05;;;6.30;99.90;;;;;;5026748;28;20043;-73
2021/12/14 07:22:41;;;;;;;68.07;37.88;;;6.30;99.90;;;;;;5027832;28;20516;-74
2021/12/14 07:25:07;;;;;;;67.93;36.45;;;6.30;99.90;;;;;;5027624;28;20037;-73
2021/12/14 07:27:49;;;;;;;71.88;38.60;;;6.30;99.90;;;;;;5047494;28;20032;-74
2021/12/14 07:30:20;;;;;;;64.03;37.30;;;6.30;99.90;;;;;;5034013;28;20444;-72
2021/12/14 07:32:49;;;;;;;67.57;38.38;;;6.30;99.90;;;;;;5023305;28;20021;-74
2021/12/14 07:35:24;;;;;;;70.55;37.60;;;6.30;99.90;;;;;;5029140;28;20108;-73
2021/12/14 07:37:51;;;;;;;70.53;39.05;;;6.30;99.90;;;;;;5029154;28;20072;-73
2021/12/14 07:40:17;;;;;;;76.22;39.95;;;6.30;99.90;;;;;;5037043;28;20029;-73
2021/12/14 07:42:44;;;;;;;71.43;39.03;;;6.30;99.90;;;;;;5049036;28;20029;-73
2021/12/14 07:45:10;;;;;;;76.03;40.33;;;6.30;99.90;;;;;;5025469;28;20510;-73
2021/12/14 07:47:48;;;;;;;69.75;39.70;;;6.30;99.90;;;;;;5015365;28;20045;-73
2021/12/14 07:50:13;;;;;;;71.03;39.65;;;6.30;99.90;;;;;;5018679;28;20725;-73
2021/12/14 07:52:39;;;;;;;70.75;38.95;;;6.30;99.90;;;;;;5024459;28;20082;-74
2021/12/14 07:55:12;;;;;;;72.45;39.97;;;6.30;99.90;;;;;;5047729;28;20059;-74
2021/12/14 07:57:38;;;;;;;65.28;36.90;;;6.30;99.90;;;;;;5023192;28;20097;-74
2021/12/14 08:00:24;;;;;;;73.75;38.63;;;6.30;99.90;;;;;;5020188;28;20054;-75
2021/12/14 08:02:52;;;;;;;68.18;37.78;;;6.30;99.90;;;;;;5024673;28;20034;-74
2021/12/14 08:05:26;;;;;;;74.57;39.78;;;6.40;99.90;;;;;;5033660;28;20035;-72
2021/12/14 08:08:13;;;;;;;71.72;40.75;;;6.40;99.90;;;;;;5030057;28;20029;-73
2021/12/14 08:10:45;;;;;;;70.72;38.20;;;6.40;99.90;;;;;;5025243;28;20109;-73
2021/12/14 08:13:20;;;;;;;70.13;38.30;;;6.30;99.90;;;;;;5010882;28;20041;-74
2021/12/14 08:15:50;;;;;;;70.43;36.83;;;6.40;99.90;;;;;;5034788;28;20025;-73
2021/12/14 08:18:28;;;;;;;69.13;37.40;;;6.40;99.90;;;;;;5023051;28;20052;-77
2021/12/14 08:21:04;;;;;;;57.85;33.55;;;6.30;99.90;;;;;;5040391;28;20052;-73
2021/12/14 08:23:34;;;;;;;58.63;33.33;;;6.30;99.90;;;;;;5017372;28;20615;-75
2021/12/14 08:26:12;;;;;;;60.15;33.00;;;6.40;99.90;;;;;;5028535;28;20029;-74
2021/12/14 08:28:52;;;;;;;62.15;33.42;;;6.40;99.90;;;;;;5037836;28;20056;-73
2021/12/14 08:31:20;;;;;;;64.45;34.75;;;6.40;99.90;;;;;;5026738;28;20079;-75
2021/12/14 08:33:57;;;;;;;62.40;35.22;;;6.40;99.90;;;;;;5034976;28;21909;-74
2021/12/14 08:36:23;;;;;;;57.25;32.25;;;6.40;99.90;;;;;;5032762;28;20368;-73
2021/12/14 08:39:08;;;;;;;61.25;33.63;;;6.40;99.90;;;;;;5018393;28;20028;-73
2021/12/14 08:41:34;;;;;;;68.43;34.58;;;6.40;99.90;;;;;;5038074;28;20507;-74
2021/12/14 08:44:09;;;;;;;61.25;33.97;;;6.40;99.90;;;;;;5024836;28;20028;-73
2021/12/14 08:46:35;;;;;;;59.75;33.33;;;6.50;99.90;;;;;;5022410;28;20040;-76
2021/12/14 08:49:06;;;;;;;64.80;34.78;;;6.50;99.90;;;;;;5026081;28;20041;-74
2021/12/14 08:51:35;;;;;;;61.88;33.90;;;6.50;99.90;;;;;;5034567;28;20045;-74
2021/12/14 08:54:17;;;;;;;59.92;33.33;;;6.50;99.90;;;;;;5032209;28;20037;-73
2021/12/14 08:56:51;;;;;;;63.53;34.70;;;6.60;99.90;;;;;;5029784;28;20026;-74
2021/12/14 08:59:17;;;;;;;56.17;32.20;;;6.60;99.90;;;;;;5036629;28;20036;-74
2021/12/14 09:01:43;;;;;;;59.25;34.25;;;6.60;99.90;;;;;;5034751;28;20025;-74
2021/12/14 09:04:19;;;;;;;61.30;33.80;;;6.60;99.90;;;;;;5042626;28;20102;-74
2021/12/14 09:06:48;;;;;;;53.78;31.20;;;6.60;99.90;;;;;;5027052;28;20036;-76
2021/12/14 09:09:17;;;;;;;52.72;30.80;;;6.60;99.90;;;;;;5046569;28;20480;-74
2021/12/14 09:11:47;;;;;;;52.83;31.83;;;6.60;99.90;;;;;;5037467;28;20034;-75
2021/12/14 09:14:14;;;;;;;52.42;30.35;;;6.60;99.90;;;;;;5024352;28;20490;-76
2021/12/14 09:16:44;;;;;;;59.22;31.83;;;6.60;99.90;;;;;;5042915;28;20034;-74
2021/12/14 09:19:16;;;;;;;60.33;33.28;;;6.60;99.90;;;;;;5027771;28;20132;-75
2021/12/14 09:21:45;;;;;;;56.83;32.33;;;6.70;99.90;;;;;;5034292;28;20397;-74
2021/12/14 09:24:16;;;;;;;54.55;32.42;;;6.70;99.90;;;;;;5023090;28;20025;-77
2021/12/14 09:26:56;;;;;;;53.92;30.55;;;6.70;99.90;;;;;;5046392;28;20117;-74
2021/12/14 09:29:24;;;;;;;56.97;32.20;;;6.80;99.90;;;;;;5019254;28;20072;-74
2021/12/14 09:31:53;;;;;;;56.78;32.80;;;6.80;99.90;;;;;;5026732;28;20062;-76
2021/12/14 09:34:22;;;;;;;60.03;34.20;;;6.80;99.90;;;;;;5026566;28;20034;-78
2021/12/14 09:36:50;;;;;;;59.42;34.20;;;6.80;99.90;;;;;;5029182;28;20030;-78
2021/12/14 09:39:32;;;;;;;55.33;32.55;;;6.80;99.90;;;;;;5022299;28;20021;-73
2021/12/14 09:42:02;;;;;;;53.67;31.38;;;6.80;99.90;;;;;;5039794;28;20033;-79
2021/12/14 09:44:31;;;;;;;54.25;31.42;;;6.80;99.90;;;;;;5029941;28;20548;-78
2021/12/14 09:47:00;;;;;;;57.30;33.47;;;6.80;99.90;;;;;;5031539;28;20092;-79
2021/12/14 09:49:26;;;;;;;58.58;32.72;;;6.80;99.90;;;;;;5032732;28;20076;-73
2021/12/14 09:52:02;;;;;;;54.78;31.77;;;6.80;99.90;;;;;;5024128;28;20064;-77
2021/12/14 09:54:28;;;;;;;57.85;32.83;;;6.80;99.90;;;;;;5016313;28;20029;-76
2021/12/14 09:57:00;;;;;;;60.47;34.63;;;6.80;99.90;;;;;;5015202;28;20036;-76
2021/12/14 09:59:26;;;;;;;63.15;37.00;;;6.90;99.90;;;;;;5030679;28;20045;-76
2021/12/14 10:01:56;;;;;;;58.85;33.85;;;6.90;99.90;;;;;;5035110;28;20068;-73
2021/12/14 10:04:54;;;;;;;57.18;32.28;;;;;;;;;;4921650;28;10001116;-74
2021/12/14 10:07:22;;;;;;;59.78;33.65;;;7.00;99.90;;;;;;5027323;28;20226;-74
2021/12/14 10:09:50;;;;;;;56.45;31.95;;;7.00;99.90;;;;;;5032876;28;20041;-74
2021/12/14 10:14:52;;;;;;;56.17;32.78;;;7.00;99.90;;;;;;5026171;28;20026;-74
2021/12/14 10:17:22;;;;;;;62.55;33.65;;;7.10;99.90;;;;;;5040566;28;20563;-73
2021/12/14 10:19:48;;;;;;;61.42;34.30;;;7.10;99.90;;;;;;5025470;28;20029;-74
2021/12/14 10:22:23;;;;;;;57.15;33.75;;;7.20;99.90;;;;;;5035519;28;20022;-73
2021/12/14 10:24:58;;;;;;;61.08;33.42;;;7.20;99.90;;;;;;5018762;28;20062;-74
2021/12/14 10:27:27;;;;;;;59.95;33.97;;;7.20;99.90;;;;;;5013960;28;20563;-73
2021/12/14 10:29:55;;;;;;;60.47;34.28;;;7.20;99.90;;;;;;5027391;28;20062;-73
2021/12/14 10:32:28;;;;;;;58.20;34.10;;;7.30;99.90;;;;;;5024820;28;20068;-74
2021/12/14 10:35:00;;;;;;;57.80;32.78;;;7.30;99.90;;;;;;5038287;28;20559;-74
2021/12/14 10:37:39;;;;;;;59.92;31.83;;;7.30;99.90;;;;;;5045026;28;20033;-74
2021/12/14 10:45:30;;;;;;;56.88;33.30;;;7.40;99.90;;;;;;5015752;28;20085;-74
2021/12/14 10:47:57;;;;;;;49.40;29.75;;;7.40;99.90;;;;;;5014086;28;20034;-74
2021/12/14 10:50:28;;;;;;;54.78;31.15;;;7.40;99.90;;;;;;5023887;28;20067;-74
2021/12/14 10:52:54;;;;;;;54.08;31.92;;;7.40;99.90;;;;;;5021852;28;20026;-73
2021/12/14 10:55:25;;;;;;;52.60;30.65;;;7.40;99.90;;;;;;5033283;28;20613;-75
2021/12/14 10:57:51;;;;;;;50.53;30.00;;;;;;;;;;5022529;28;20033;-75
2021/12/14 11:00:29;;;;;;;50.30;30.35;;;7.50;99.90;;;;;;5022089;28;20025;-75
2021/12/14 11:03:00;;;;;;;50.25;30.17;;;7.40;99.90;;;;;;5024579;28;20033;-75
2021/12/14 11:05:27;;;;;;;51.80;29.50;;;7.50;99.90;;;;;;5015959;28;20087;-75
2021/12/14 11:07:53;;;;;;;50.80;28.38;;;7.40;99.90;;;;;;5023663;28;20401;-75
2021/12/14 11:10:25;;;;;;;49.65;29.00;;;7.50;99.90;;;;;;5016972;28;20021;-75
2021/12/14 11:12:57;;;;;;;42.75;26.42;;;7.50;99.90;;;;;;5023951;28;20789;-75
2021/12/14 11:15:27;;;;;;;43.95;26.85;;;7.50;99.90;;;;;;5024160;28;20021;-75
2021/12/14 11:18:09;;;;;;;48.20;27.73;;;7.50;99.90;;;;;;5021410;28;20022;-74
2021/12/14 11:20:41;;;;;;;44.58;26.23;;;7.40;99.90;;;;;;5022759;28;20083;-75
2021/12/14 11:23:13;;;;;;;45.60;26.90;;;7.40;99.90;;;;;;5022333;28;20083;-75
2021/12/14 11:25:50;;;;;;;44.03;25.67;;;7.40;99.90;;;;;;5034458;28;20033;-75
2021/12/14 11:28:20;;;;;;;42.40;25.17;;;7.40;99.90;;;;;;5030786;28;20033;-75
2021/12/14 11:30:49;;;;;;;42.42;26.45;;;7.50;99.90;;;;;;5033927;28;20061;-75
2021/12/14 11:33:28;;;;;;;43.35;25.75;;;7.50;99.90;;;;;;5015474;28;20053;-75
2021/12/14 11:36:00;;;;;;;42.35;25.42;;;7.50;99.90;;;;;;5028915;28;20032;-75
2021/12/14 11:38:31;;;;;;;40.97;24.52;;;7.50;99.90;;;;;;5017065;28;20021;-75
2021/12/14 11:41:17;;;;;;;44.47;26.83;;;7.50;99.90;;;;;;5027502;28;20033;-75
2021/12/14 11:43:53;;;;;;;40.13;25.02;;;7.50;99.90;;;;;;5019392;28;20034;-74
2021/12/14 11:46:19;;;;;;;44.40;25.65;;;7.50;99.90;;;;;;5017303;28;20025;-75
2021/12/14 11:48:45;;;;;;;46.28;26.42;;;7.50;99.90;;;;;;5018151;28;20034;-74
2021/12/14 11:51:11;;;;;;;42.35;25.20;;;7.40;99.90;;;;;;5017255;28;20037;-75
2021/12/14 11:53:36;;;;;;;40.65;25.33;;;7.40;99.90;;;;;;5025651;28;20102;-75
2021/12/14 11:56:10;;;;;;;42.35;25.42;;;7.40;99.90;;;;;;5014653;28;20080;-75
2021/12/14 11:58:43;;;;;;;40.58;25.90;;;7.40;99.90;;;;;;5016816;28;20094;-75
2021/12/14 12:01:17;;;;;;;34.50;20.17;;;7.40;99.90;;;;;;5016137;28;20389;-74
2021/12/14 12:03:49;;;;;;;41.97;25.88;;;7.40;99.90;;;;;;5023864;28;20044;-74
2021/12/14 12:06:44;;;;;;;45.38;26.52;;;7.40;99.90;;;;;;5014160;28;20029;-75
2021/12/14 12:09:37;;;;;;;44.45;26.30;;;7.40;99.90;;;;;;5015136;28;20039;-75
2021/12/14 12:12:08;;;;;;;34.85;21.23;;;7.40;99.90;;;;;;5021154;28;20029;-75
2021/12/14 12:14:55;;;;;;;46.78;28.35;;;7.40;99.90;;;;;;5029611;28;20090;-75
2021/12/14 12:17:23;;;;;;;44.08;26.08;;;7.40;99.90;;;;;;5021738;28;20021;-75
2021/12/14 12:20:24;;;;;;;49.42;28.25;;;7.40;99.90;;;;;;5014081;28;20025;-75
2021/12/14 12:22:59;;;;;;;42.35;25.08;;;7.40;99.90;;;;;;5018904;28;20745;-75
2021/12/14 12:25:37;;;;;;;39.97;25.52;;;7.50;99.90;;;;;;5027562;28;20182;-75
2021/12/14 12:28:15;;;;;;;40.33;25.55;;;7.50;99.90;;;;;;5014561;28;20502;-73
2021/12/14 12:30:49;;;;;;;42.53;25.38;;;7.50;99.90;;;;;;5025629;28;20040;-73
2021/12/14 12:33:36;;;;;;;47.00;28.90;;;7.50;99.90;;;;;;5031930;28;20800;-75
2021/12/14 12:36:12;;;;;;;43.45;24.95;;;7.50;99.90;;;;;;5040992;28;20033;-76
2021/12/14 12:38:43;;;;;;;56.42;30.35;;;7.60;99.90;;;;;;5025381;28;20734;-77
2021/12/14 12:41:41;;;;;;;54.38;32.08;;;7.60;99.90;;;;;;5037343;28;20052;-76
2021/12/14 12:44:09;;;;;;;50.28;28.65;;;7.60;99.90;;;;;;5023031;28;20401;-74
2021/12/14 12:46:54;;;;;;;45.58;29.17;;;7.50;99.90;;;;;;5016512;28;20037;-76
2021/12/14 12:49:26;;;;;;;48.28;29.33;;;7.50;99.90;;;;;;5029464;28;20108;-76
2021/12/14 12:52:00;;;;;;;46.08;29.45;;;7.50;99.90;;;;;;5029377;28;20037;-76
2021/12/14 12:54:34;;;;;;;38.72;23.60;;;7.50;99.90;;;;;;5030611;28;20032;-76
2021/12/14 12:57:31;;;;;;;33.67;21.65;;;7.60;99.90;;;;;;5021903;28;20052;-74
2021/12/14 13:00:11;;;;;;;39.28;24.45;;;7.60;99.90;;;;;;5014943;28;20041;-77
2021/12/14 13:02:57;;;;;;;33.55;23.20;;;7.60;99.90;;;;;;5021745;28;20128;-76
2021/12/14 13:05:47;;;;;;;32.22;21.65;;;7.60;99.90;;;;;;5014618;28;20483;-76
2021/12/14 13:08:25;;;;;;;34.72;20.85;;;7.60;99.90;;;;;;5018770;28;20671;-76
2021/12/14 13:11:07;;;;;;;33.20;21.20;;;7.60;99.90;;;;;;5018655;28;20033;-76
2021/12/14 13:13:46;;;;;;;25.48;16.63;;;7.60;99.90;;;;;;5019317;28;20056;-76
2021/12/14 13:16:22;;;;;;;33.75;20.33;;;7.60;99.90;;;;;;5036944;28;20030;-75
2021/12/14 13:19:11;;;;;;;32.55;20.40;;;7.60;99.90;;;;;;5022906;28;20061;-76
2021/12/14 13:21:53;;;;;;;35.75;21.58;;;7.60;99.90;;;;;;5021673;28;20117;-76
2021/12/14 13:24:24;;;;;;;28.00;17.27;;;7.60;99.90;;;;;;5010963;28;20052;-75
2021/12/14 13:27:09;;;;;;;35.85;21.88;;;7.60;99.90;;;;;;5023774;28;20056;-76
2021/12/14 13:29:44;;;;;;;32.20;20.60;;;7.60;99.90;;;;;;5015746;28;20125;-75
2021/12/14 13:32:21;;;;;;;33.60;21.30;;;7.60;99.90;;;;;;5006860;28;20057;-74
2021/12/14 13:35:11;;;;;;;33.63;21.23;;;7.60;99.90;;;;;;5018315;28;20040;-74
2021/12/14 13:37:50;;;;;;;32.53;21.08;;;7.60;99.90;;;;;;5025989;28;20178;-75